createdAt,value
2019-02-18T00:02:00.990Z,76.40
2019-02-18T00:04:49.676Z,77.20
2019-02-18T00:07:38.116Z,77.10
2019-02-18T00:10:19.244Z,77.10
2019-02-18T00:16:08.727Z,77.10
2019-02-18T00:18:50.075Z,77.10
2019-02-18T00:21:31.571Z,77.10
2019-02-18T00:24:32.279Z,77.70
2019-02-18T00:27:13.632Z,77.30
2019-02-18T00:29:54.971Z,77.30
2019-02-18T00:35:44.264Z,77.10
2019-02-18T00:41:34.054Z,77.70
2019-02-18T00:47:23.383Z,77.20
2019-02-18T00:50:04.313Z,77.10
2019-02-18T00:52:45.353Z,77.10
2019-02-18T00:55:26.682Z,77.00
2019-02-18T00:58:09.064Z,77.60
2019-02-18T01:00:50.212Z,77.70
2019-02-18T01:06:36.894Z,78.60
2019-02-18T01:09:18.428Z,78.90
2019-02-18T01:12:18.883Z,79.20
2019-02-18T01:14:59.889Z,78.60
2019-02-18T01:17:41.334Z,79.80
2019-02-18T01:20:22.475Z,80.50
2019-02-18T01:23:04.314Z,80.50
2019-02-18T01:25:45.568Z,80.60
2019-02-18T01:28:26.708Z,80.40
2019-02-18T01:31:07.623Z,79.90
2019-02-18T01:36:57.389Z,80.10
2019-02-18T01:39:38.021Z,80.00
2019-02-18T01:42:18.676Z,79.50
2019-02-18T01:45:00.336Z,79.30
2019-02-18T01:47:41.661Z,79.80
2019-02-18T01:50:23.220Z,79.60
2019-02-18T01:53:05.017Z,79.00
2019-02-18T01:55:46.748Z,79.10
2019-02-18T01:58:28.295Z,79.00
2019-02-18T02:01:08.883Z,79.00
2019-02-18T02:03:50.475Z,79.10
2019-02-18T02:06:31.803Z,79.40
2019-02-18T02:09:15.164Z,79.20
2019-02-18T02:11:56.291Z,79.20
2019-02-18T02:14:37.028Z,79.40
2019-02-18T02:20:37.606Z,80.30
2019-02-18T02:23:19.084Z,79.70
2019-02-18T02:26:00.912Z,80.30
2019-02-18T02:28:42.072Z,79.60
2019-02-18T02:34:42.535Z,79.40
2019-02-18T02:37:23.758Z,80.10
2019-02-18T02:43:31.968Z,80.20
2019-02-18T02:46:11.514Z,81.00
2019-02-18T02:48:59.958Z,80.60
2019-02-18T02:55:32.151Z,81.20
2019-02-18T02:58:20.572Z,81.20
2019-02-18T03:01:09.021Z,81.20
2019-02-18T03:03:57.428Z,81.30
2019-02-18T03:06:45.876Z,81.90
2019-02-18T03:09:26.918Z,82.50
2019-02-18T03:12:07.485Z,82.40
2019-02-18T03:14:48.751Z,82.40
2019-02-18T03:17:30.019Z,83.50
2019-02-18T03:20:11.387Z,83.50
2019-02-18T03:22:52.890Z,83.50
2019-02-18T03:25:34.237Z,83.40
2019-02-18T03:28:15.728Z,84.00
2019-02-18T03:30:56.385Z,83.90
2019-02-18T03:33:37.842Z,84.00
2019-02-18T03:36:19.286Z,84.70
2019-02-18T03:39:00.796Z,83.60
2019-02-18T03:41:42.103Z,83.50
2019-02-18T03:44:23.555Z,83.50
2019-02-18T03:47:04.356Z,83.50
2019-02-18T03:49:45.226Z,83.50
2019-02-18T03:55:34.683Z,85.10
2019-02-18T03:58:15.582Z,86.10
2019-02-18T04:00:56.718Z,87.10
2019-02-18T04:03:37.445Z,87.70
2019-02-18T04:06:18.522Z,88.40
2019-02-18T04:08:59.836Z,88.60
2019-02-18T04:14:46.399Z,88.60
2019-02-18T04:17:27.137Z,87.40
2019-02-18T04:20:08.616Z,86.30
2019-02-18T04:22:49.832Z,86.10
2019-02-18T04:25:31.381Z,86.00
2019-02-18T04:28:12.290Z,86.10
2019-02-18T04:30:53.739Z,86.70
2019-02-18T04:33:35.317Z,86.90
2019-02-18T04:36:16.745Z,86.80
2019-02-18T04:38:57.504Z,87.80
2019-02-18T04:41:38.774Z,88.10
2019-02-18T04:44:19.677Z,88.20
2019-02-18T04:47:01.258Z,88.00
2019-02-18T04:49:42.732Z,88.30
2019-02-18T04:52:23.436Z,88.10
2019-02-18T04:55:04.245Z,87.90
2019-02-18T04:57:44.965Z,87.20
2019-02-18T05:00:26.496Z,87.00
2019-02-18T05:03:07.261Z,85.90
2019-02-18T05:05:48.035Z,85.50
2019-02-18T05:08:28.703Z,84.70
2019-02-18T05:11:09.805Z,84.10
2019-02-18T05:13:51.416Z,84.10
2019-02-18T05:16:32.618Z,84.00
2019-02-18T05:19:13.988Z,83.60
2019-02-18T05:21:55.627Z,83.60
2019-02-18T05:24:37.175Z,84.00
2019-02-18T05:27:18.504Z,83.60
2019-02-18T05:29:59.215Z,84.20
2019-02-18T05:32:41.077Z,84.00
2019-02-18T05:35:22.354Z,83.90
2019-02-18T05:38:03.015Z,83.50
2019-02-18T05:40:43.699Z,84.20
2019-02-18T05:43:24.381Z,84.40
2019-02-18T05:46:05.176Z,84.40
2019-02-18T05:52:05.280Z,84.40
2019-02-18T05:54:47.272Z,84.50
2019-02-18T05:57:28.529Z,84.50
2019-02-18T06:00:09.819Z,84.40
2019-02-18T06:02:51.507Z,84.90
2019-02-18T06:05:32.846Z,85.40
2019-02-18T06:11:19.571Z,85.40
2019-02-18T06:14:00.848Z,85.10
2019-02-18T06:16:42.401Z,85.30
2019-02-18T06:22:43.046Z,85.40
2019-02-18T06:25:24.546Z,85.40
2019-02-18T06:28:05.130Z,85.60
2019-02-18T06:30:45.706Z,85.80
2019-02-18T06:33:28.198Z,86.30
2019-02-18T06:36:08.892Z,85.70
2019-02-18T06:38:49.642Z,85.60
2019-02-18T06:41:30.407Z,85.60
2019-02-18T06:44:11.997Z,85.10
2019-02-18T06:46:58.168Z,85.60
2019-02-18T06:53:01.553Z,84.90
2019-02-18T06:55:42.904Z,85.50
2019-02-18T07:01:47.124Z,85.50
2019-02-18T07:04:47.264Z,84.90
2019-02-18T07:07:47.698Z,84.80
2019-02-18T07:10:35.172Z,83.60
2019-02-18T07:13:15.764Z,82.60
2019-02-18T07:15:56.462Z,81.90
2019-02-18T07:21:43.147Z,81.30
2019-02-18T07:24:24.687Z,80.30
2019-02-18T07:27:04.283Z,79.60
2019-02-18T07:29:52.726Z,79.20
2019-02-18T07:33:17.900Z,78.80
2019-02-18T07:36:42.972Z,78.50
2019-02-18T07:39:31.427Z,77.80
2019-02-18T07:42:19.861Z,76.70
2019-02-18T07:45:08.781Z,76.10
2019-02-18T07:47:57.223Z,75.50
2019-02-18T07:50:45.652Z,75.70
2019-02-18T07:53:34.100Z,75.00
2019-02-18T07:56:22.534Z,74.70
2019-02-18T07:59:10.971Z,74.60
2019-02-18T08:01:59.398Z,74.00
2019-02-18T08:04:47.150Z,73.20
2019-02-18T08:07:35.573Z,72.90
2019-02-18T08:10:16.422Z,73.30
2019-02-18T08:12:57.753Z,72.40
2019-02-18T08:15:38.332Z,72.10
2019-02-18T08:18:19.010Z,71.50
2019-02-18T08:24:08.239Z,70.60
2019-02-18T08:26:49.367Z,70.30
2019-02-18T08:29:48.959Z,70.00
2019-02-18T08:32:30.679Z,70.00
2019-02-18T08:35:10.765Z,70.20
2019-02-18T08:37:59.182Z,69.80
2019-02-18T08:40:47.622Z,68.90
2019-02-18T08:43:36.044Z,68.00
2019-02-18T08:46:24.892Z,67.50
2019-02-18T08:49:13.339Z,67.50
2019-02-18T08:52:01.764Z,67.20
2019-02-18T08:54:56.674Z,67.10
2019-02-18T09:00:29.092Z,66.60
2019-02-18T09:03:17.508Z,66.00
2019-02-18T09:06:05.977Z,65.60
2019-02-18T09:15:14.392Z,63.40
2019-02-18T09:17:56.082Z,63.50
2019-02-18T09:20:56.545Z,63.60
2019-02-18T09:23:56.984Z,63.60
2019-02-18T09:26:37.643Z,62.80
2019-02-18T09:29:18.966Z,62.50
2019-02-18T09:35:05.076Z,61.30
2019-02-18T09:37:46.675Z,60.50
2019-02-18T09:40:27.340Z,59.80
2019-02-18T09:43:08.026Z,59.80
2019-02-18T09:45:49.564Z,59.50
2019-02-18T09:48:30.220Z,59.20
2019-02-18T09:51:10.925Z,58.80
2019-02-18T09:53:51.807Z,58.50
2019-02-18T09:59:37.768Z,57.40
2019-02-18T10:02:18.712Z,56.90
2019-02-18T10:05:00.019Z,57.10
2019-02-18T10:07:40.736Z,57.30
2019-02-18T10:10:20.254Z,56.00
2019-02-18T10:13:09.021Z,55.70
2019-02-18T10:15:57.748Z,54.90
2019-02-18T10:22:29.091Z,53.70
2019-02-18T10:25:17.631Z,53.30
2019-02-18T10:28:07.171Z,52.40
2019-02-18T10:30:55.644Z,51.80
2019-02-18T10:34:01.526Z,51.40
2019-02-18T10:36:31.029Z,51.00
2019-02-18T10:39:37.308Z,50.00
2019-02-18T10:42:24.538Z,50.00
2019-02-18T10:45:13.694Z,49.70
2019-02-18T10:48:02.966Z,48.90
2019-02-18T10:50:52.093Z,48.40
2019-02-18T10:53:40.877Z,48.10
2019-02-18T10:56:30.016Z,48.10
2019-02-18T10:59:19.031Z,46.90
2019-02-18T11:05:39.248Z,46.40
2019-02-18T11:08:27.753Z,45.90
2019-02-18T11:11:16.702Z,45.30
2019-02-18T11:13:51.980Z,43.90
2019-02-18T11:19:38.682Z,42.70
2019-02-18T11:22:08.719Z,42.90
2019-02-18T11:27:46.534Z,41.70
2019-02-18T11:30:34.999Z,41.20
2019-02-18T11:33:22.907Z,41.60
2019-02-18T11:39:45.027Z,40.00
2019-02-18T11:42:33.491Z,39.40
2019-02-18T11:45:21.914Z,39.10
2019-02-18T11:47:51.289Z,39.00
2019-02-18T11:50:40.031Z,40.10
2019-02-18T11:53:30.156Z,39.50
2019-02-18T11:56:18.590Z,38.80
2019-02-18T11:59:07.832Z,38.80
2019-02-18T12:01:56.559Z,39.20
2019-02-18T12:04:45.297Z,39.10
2019-02-18T12:07:33.774Z,38.60
2019-02-18T12:12:57.316Z,38.70
2019-02-18T12:15:38.859Z,38.70
2019-02-18T12:18:19.798Z,38.70
2019-02-18T12:21:01.046Z,39.00
2019-02-18T12:23:41.673Z,39.20
2019-02-18T12:26:22.607Z,39.20
2019-02-18T12:29:04.489Z,39.10
2019-02-18T12:32:04.045Z,38.30
2019-02-18T12:34:46.008Z,38.20
2019-02-18T12:37:15.395Z,38.10
2019-02-18T12:40:03.980Z,37.80
2019-02-18T12:42:54.132Z,37.90
2019-02-18T12:45:23.492Z,37.60
2019-02-18T12:48:11.964Z,37.50
2019-02-18T12:51:00.441Z,37.30
2019-02-18T12:53:49.261Z,36.80
2019-02-18T12:56:37.717Z,36.90
2019-02-18T12:59:28.685Z,37.00
2019-02-18T13:02:16.283Z,37.30
2019-02-18T13:08:04.604Z,36.40
2019-02-18T13:10:46.174Z,36.50
2019-02-18T13:13:15.643Z,36.50
2019-02-18T13:16:04.195Z,36.40
2019-02-18T13:19:01.119Z,36.90
2019-02-18T13:21:49.877Z,37.10
2019-02-18T13:24:40.011Z,36.30
2019-02-18T13:27:28.449Z,36.40
2019-02-18T13:30:34.928Z,36.10
2019-02-18T13:33:04.310Z,35.70
2019-02-18T13:35:53.367Z,35.40
2019-02-18T13:38:42.034Z,36.10
2019-02-18T13:44:18.128Z,35.50
2019-02-18T13:47:07.060Z,35.10
2019-02-18T13:49:57.566Z,34.90
2019-02-18T13:55:37.053Z,35.00
2019-02-18T13:58:26.149Z,35.00
2019-02-18T14:01:15.078Z,34.70
2019-02-18T14:04:03.440Z,35.10
2019-02-18T14:06:52.279Z,34.70
2019-02-18T14:09:33.670Z,35.20
2019-02-18T14:12:16.401Z,35.10
2019-02-18T14:14:45.922Z,34.90
2019-02-18T14:17:35.350Z,35.30
2019-02-18T14:20:23.845Z,35.60
2019-02-18T14:23:12.317Z,35.40
2019-02-18T14:26:00.818Z,34.90
2019-02-18T14:28:49.615Z,34.90
2019-02-18T14:31:38.044Z,34.90
2019-02-18T14:34:27.146Z,34.80
2019-02-18T14:37:15.523Z,35.10
2019-02-18T14:40:03.235Z,36.30
2019-02-18T14:42:33.171Z,35.30
2019-02-18T14:45:21.631Z,35.70
2019-02-18T14:47:51.248Z,35.50
2019-02-18T14:50:39.820Z,34.80
2019-02-18T14:56:59.102Z,36.60
2019-02-18T14:59:47.593Z,36.90
2019-02-18T15:06:20.595Z,37.80
2019-02-18T15:08:52.073Z,37.70
2019-02-18T15:11:41.042Z,38.30
2019-02-18T15:14:29.882Z,37.60
2019-02-18T15:17:18.334Z,37.60
2019-02-18T15:20:06.822Z,37.70
2019-02-18T15:22:56.867Z,38.70
2019-02-18T15:25:45.663Z,38.10
2019-02-18T15:28:34.117Z,37.70
2019-02-18T15:31:22.546Z,38.20
2019-02-18T15:36:58.973Z,38.10
2019-02-18T15:39:47.440Z,38.50
2019-02-18T15:45:05.811Z,39.90
2019-02-18T15:48:01.514Z,40.20
2019-02-18T15:50:25.424Z,40.70
2019-02-18T15:56:58.013Z,40.40
2019-02-18T15:59:46.647Z,40.90
2019-02-18T16:02:35.100Z,40.80
2019-02-18T16:05:24.406Z,42.20
2019-02-18T16:08:13.182Z,43.30
2019-02-18T16:10:53.846Z,41.80
2019-02-18T16:13:34.766Z,42.10
2019-02-18T16:16:15.718Z,41.60
2019-02-18T16:18:57.286Z,41.50
2019-02-18T16:21:38.222Z,41.30
2019-02-18T16:24:20.094Z,41.30
2019-02-18T16:27:01.683Z,42.90
2019-02-18T16:29:42.967Z,42.90
2019-02-18T16:32:24.625Z,41.30
2019-02-18T16:35:05.329Z,41.10
2019-02-18T16:37:46.915Z,41.10
2019-02-18T16:40:27.782Z,41.30
2019-02-18T16:43:09.016Z,41.70
2019-02-18T16:45:50.009Z,43.00
2019-02-18T16:48:31.524Z,42.80
2019-02-18T16:54:17.265Z,43.70
2019-02-18T16:56:59.226Z,45.20
2019-02-18T16:59:40.819Z,45.90
2019-02-18T17:02:21.578Z,45.00
2019-02-18T17:05:03.453Z,44.10
2019-02-18T17:07:44.840Z,44.70
2019-02-18T17:10:26.315Z,45.60
2019-02-18T17:13:08.555Z,46.20
2019-02-18T17:15:38.212Z,46.30
2019-02-18T17:18:26.666Z,46.70
2019-02-18T17:21:16.778Z,48.20
2019-02-18T17:24:05.561Z,49.50
2019-02-18T17:26:55.691Z,49.60
2019-02-18T17:29:44.145Z,50.80
2019-02-18T17:32:32.943Z,52.90
2019-02-18T17:35:21.582Z,53.50
2019-02-18T17:38:09.996Z,54.00
2019-02-18T17:40:58.482Z,52.90
2019-02-18T17:43:46.854Z,53.30
2019-02-18T17:46:35.578Z,55.10
2019-02-18T17:49:24.217Z,55.40
2019-02-18T17:52:14.356Z,55.90
2019-02-18T17:57:51.632Z,58.50
2019-02-18T18:03:28.874Z,60.00
2019-02-18T18:06:17.315Z,59.90
2019-02-18T18:08:58.559Z,60.20
2019-02-18T18:11:39.547Z,60.00
2019-02-18T18:14:20.256Z,59.10
2019-02-18T18:17:01.706Z,59.00
2019-02-18T18:19:43.246Z,59.30
2019-02-18T18:25:29.770Z,59.60
2019-02-18T18:28:11.276Z,60.60
2019-02-18T18:30:52.231Z,62.10
2019-02-18T18:33:33.613Z,62.70
2019-02-18T18:36:15.237Z,63.10
2019-02-18T18:38:56.596Z,63.70
2019-02-18T18:41:38.554Z,63.10
2019-02-18T18:47:24.778Z,63.60
2019-02-18T18:50:25.062Z,63.50
2019-02-18T18:53:05.967Z,64.20
2019-02-18T18:56:06.478Z,64.40
2019-02-18T18:58:47.892Z,64.20
2019-02-18T19:01:28.492Z,64.80
2019-02-18T19:04:10.274Z,66.00
2019-02-18T19:06:51.904Z,67.00
2019-02-18T19:12:41.852Z,67.10
2019-02-18T19:18:42.504Z,67.60
2019-02-18T19:21:23.314Z,68.20
2019-02-18T19:24:03.935Z,68.20
2019-02-18T19:26:44.612Z,68.20
2019-02-18T19:35:36.238Z,70.50
2019-02-18T19:41:24.517Z,71.40
2019-02-18T19:44:05.398Z,71.90
2019-02-18T19:46:47.435Z,71.00
2019-02-18T19:49:28.179Z,71.50
2019-02-18T19:52:08.891Z,71.10
2019-02-18T19:54:50.074Z,70.70
2019-02-18T19:57:31.525Z,69.90
2019-02-18T20:00:12.589Z,69.90
2019-02-18T20:02:42.017Z,70.20
2019-02-18T20:05:30.718Z,68.80
2019-02-18T20:08:19.475Z,69.10
2019-02-18T20:11:07.904Z,69.80
2019-02-18T20:13:37.209Z,69.70
2019-02-18T20:16:25.657Z,68.80
2019-02-18T20:19:14.432Z,68.60
2019-02-18T20:22:03.491Z,67.80
2019-02-18T20:24:51.970Z,67.60
2019-02-18T20:27:40.696Z,66.90
2019-02-18T20:30:29.074Z,66.50
2019-02-18T20:32:58.465Z,66.80
2019-02-18T20:36:22.184Z,65.80
2019-02-18T20:39:10.930Z,65.90
2019-02-18T20:41:59.638Z,66.80
2019-02-18T20:44:48.102Z,67.50
2019-02-18T20:47:38.195Z,68.20
2019-02-18T20:50:26.662Z,69.10
2019-02-18T20:53:15.092Z,69.80
2019-02-18T20:56:03.951Z,71.00
2019-02-18T20:58:52.323Z,70.40
2019-02-18T21:01:40.702Z,69.30
2019-02-18T21:04:29.499Z,68.20
2019-02-18T21:07:18.255Z,68.70
2019-02-18T21:12:55.966Z,69.00
2019-02-18T21:15:44.348Z,69.20
2019-02-18T21:18:34.765Z,69.40
2019-02-18T21:21:23.256Z,70.40
2019-02-18T21:24:12.128Z,70.80
2019-02-18T21:27:00.599Z,70.60
2019-02-18T21:29:49.055Z,70.90
2019-02-18T21:35:07.222Z,72.60
2019-02-18T21:37:56.459Z,74.10
2019-02-18T21:40:45.200Z,74.30
2019-02-18T21:43:33.859Z,74.20
2019-02-18T21:46:22.361Z,73.80
2019-02-18T21:49:10.810Z,73.90
2019-02-18T21:51:59.367Z,73.30
2019-02-18T21:54:47.864Z,74.10
2019-02-18T21:57:38.222Z,74.80
2019-02-18T22:00:26.673Z,75.40
2019-02-18T22:03:17.755Z,75.10
2019-02-18T22:06:07.150Z,75.90
2019-02-18T22:08:55.605Z,76.40
2019-02-18T22:11:44.344Z,76.70
2019-02-18T22:14:35.263Z,76.30
2019-02-18T22:17:04.223Z,77.00
2019-02-18T22:19:52.701Z,76.70
2019-02-18T22:22:21.982Z,75.50
2019-02-18T22:25:12.459Z,76.20
2019-02-18T22:28:00.899Z,76.00
2019-02-18T22:30:49.274Z,76.10
2019-02-18T22:33:37.714Z,76.10
2019-02-18T22:36:26.179Z,75.10
2019-02-18T22:42:37.951Z,74.80
2019-02-18T22:45:26.333Z,76.10
2019-02-18T22:48:16.416Z,76.30
2019-02-18T22:51:04.768Z,76.10
2019-02-18T22:53:53.514Z,76.20
2019-02-18T22:56:59.427Z,75.70
2019-02-18T22:59:49.503Z,75.40
2019-02-18T23:02:37.974Z,75.90
2019-02-18T23:05:26.886Z,76.00
2019-02-18T23:08:15.388Z,76.90
2019-02-18T23:14:00.449Z,76.70
2019-02-18T23:19:46.303Z,76.70
2019-02-18T23:22:16.030Z,76.00
2019-02-18T23:25:04.483Z,76.30
2019-02-18T23:27:51.794Z,76.10
2019-02-18T23:30:40.512Z,76.00
2019-02-18T23:33:29.260Z,75.90
2019-02-18T23:36:17.747Z,75.00
2019-02-18T23:39:26.594Z,75.00
2019-02-18T23:42:15.526Z,75.20
2019-02-18T23:47:53.038Z,75.60
2019-02-18T23:50:41.828Z,75.90
2019-02-18T23:53:30.290Z,76.10
2019-02-18T23:56:18.746Z,76.00
2019-02-18T23:59:07.122Z,76.20
